Time;durP1;ratioP1;P1;durP2;ratioP2;P2;SDS_P1;SDS_P2;PMS_P1;PMS_P2;Temp;Humidity;BMP_temperature;BMP_pressure;BME280_temperature;BME280_humidity;BME280_pressure;Samples;Min_cycle;Max_cycle;Signal;HPM_P1;HPM_P2
2022/07/07 00:02:03;;;;;;;4.85;4.65;;;;;;;;;;5095628;28;20032;-60
2022/07/07 00:04:29;;;;;;;4.82;4.63;;;;;;;;;;5096789;28;20028;-60
2022/07/07 00:06:54;;;;;;;5.00;4.80;;;;;;;;;;5101551;28;20024;-60
2022/07/07 00:09:20;;;;;;;5.20;5.00;;;;;;;;;;5095399;28;20020;-61
2022/07/07 00:11:45;;;;;;;5.13;4.93;;;;;;;;;;5094767;28;20035;-60
2022/07/07 00:14:11;;;;;;;4.75;4.55;;;;;;;;;;5095558;28;20485;-61
2022/07/07 00:16:37;;;;;;;4.97;4.78;;;;;;;;;;5108431;28;20035;-61
2022/07/07 00:19:04;;;;;;;4.90;4.70;;;;;;;;;;5095206;28;20394;-61
2022/07/07 00:21:29;;;;;;;4.85;4.65;;;;;;;;;;5095334;28;20081;-60
2022/07/07 00:23:54;;;;;;;4.80;4.60;;;;;;;;;;5094566;28;20555;-60
2022/07/07 00:26:20;;;;;;;4.97;4.78;;;;;;;;;;5090541;28;20056;-60
2022/07/07 00:28:46;;;;;;;4.95;4.75;;;;;;;;;;5095035;28;20043;-60
2022/07/07 00:31:11;;;;;;;5.05;4.85;;;;;;;;;;5092623;28;20028;-60
2022/07/07 00:33:36;;;;;;;4.88;4.68;;;;;;;;;;5094951;28;20016;-60
2022/07/07 00:36:02;;;;;;;4.90;4.70;;;;;;;;;;5092577;28;20395;-59
2022/07/07 00:38:27;;;;;;;5.00;4.80;;;;;;;;;;5094844;28;20111;-59
2022/07/07 00:40:53;;;;;;;4.80;4.60;;;;;;;;;;5102842;28;20024;-60
2022/07/07 00:43:19;;;;;;;4.97;4.78;;;;;;;;;;5094764;28;20030;-61
2022/07/07 00:45:50;;;;;;;4.97;4.78;;;;;;;;;;5094755;28;20020;-60
2022/07/07 00:48:16;;;;;;;4.90;4.70;;;;;;;;;;5093527;28;20076;-60
2022/07/07 00:50:45;;;;;;;4.80;4.60;;;;;;;;;;5093594;28;20028;-60
2022/07/07 00:53:11;;;;;;;4.90;4.70;;;;;;;;;;5094508;28;20484;-60
2022/07/07 00:55:37;;;;;;;4.90;4.70;;;;;;;;;;5094466;28;20031;-61
2022/07/07 00:58:03;;;;;;;5.10;4.90;;;;;;;;;;5095070;28;20023;-60
2022/07/07 01:00:28;;;;;;;5.00;4.80;;;;;;;;;;5095555;28;20407;-61
2022/07/07 01:02:53;;;;;;;5.00;4.80;;;;;;;;;;5094423;28;20055;-60
2022/07/07 01:05:19;;;;;;;5.10;4.90;;;;;;;;;;5079359;28;20040;-61
2022/07/07 01:07:45;;;;;;;5.13;4.93;;;;;;;;;;5094052;28;20051;-61
2022/07/07 01:10:10;;;;;;;5.00;4.80;;;;;;;;;;5094393;28;20035;-62
2022/07/07 01:12:36;;;;;;;4.90;4.70;;;;;;;;;;5094559;28;20395;-61
2022/07/07 01:15:06;;;;;;;4.80;4.60;;;;;;;;;;5094658;28;20020;-59
2022/07/07 01:17:31;;;;;;;5.00;4.80;;;;;;;;;;5094100;28;20102;-59
2022/07/07 01:19:57;;;;;;;4.80;4.60;;;;;;;;;;5093932;28;20051;-61
2022/07/07 01:22:23;;;;;;;5.00;4.80;;;;;;;;;;5087519;28;20024;-60
2022/07/07 01:24:48;;;;;;;4.85;4.65;;;;;;;;;;5094105;28;20020;-60
2022/07/07 01:27:18;;;;;;;4.85;4.65;;;;;;;;;;5093306;28;20092;-61
2022/07/07 01:29:44;;;;;;;5.00;4.80;;;;;;;;;;5088387;28;20585;-60
2022/07/07 01:32:09;;;;;;;4.90;4.70;;;;;;;;;;5094034;28;20012;-59
2022/07/07 01:34:35;;;;;;;4.85;4.65;;;;;;;;;;5093964;28;20020;-61
2022/07/07 01:37:01;;;;;;;5.10;4.90;;;;;;;;;;5093628;28;20016;-61
2022/07/07 01:39:27;;;;;;;5.00;4.80;;;;;;;;;;5091548;28;20506;-61
2022/07/07 01:41:52;;;;;;;5.00;4.80;;;;;;;;;;5093785;28;20028;-61
2022/07/07 01:44:17;;;;;;;4.90;4.70;;;;;;;;;;5093522;28;20467;-61
2022/07/07 01:46:43;;;;;;;4.88;4.68;;;;;;;;;;5093733;28;20028;-60
2022/07/07 01:49:08;;;;;;;4.90;4.70;;;;;;;;;;5093935;28;20051;-59
2022/07/07 01:51:33;;;;;;;4.90;4.70;;;;;;;;;;5093356;28;20441;-59
2022/07/07 01:53:58;;;;;;;4.93;4.72;;;;;;;;;;5092661;28;20534;-61
2022/07/07 01:56:24;;;;;;;4.85;4.65;;;;;;;;;;5093539;28;20549;-61
2022/07/07 01:58:49;;;;;;;4.90;4.70;;;;;;;;;;5093182;28;20074;-60
2022/07/07 02:01:14;;;;;;;4.90;4.70;;;;;;;;;;5093737;28;20023;-60
2022/07/07 02:03:40;;;;;;;4.80;4.60;;;;;;;;;;5093169;28;20036;-60
2022/07/07 02:06:05;;;;;;;4.80;4.60;;;;;;;;;;5093964;28;20034;-60
2022/07/07 02:08:30;;;;;;;4.90;4.70;;;;;;;;;;5092769;28;20055;-60
2022/07/07 02:11:14;;;;;;;4.90;4.70;;;;;;;;;;5093125;28;20024;-61
2022/07/07 02:13:49;;;;;;;4.80;4.60;;;;;;;;;;5089980;28;20406;-60
2022/07/07 02:16:16;;;;;;;4.80;4.60;;;;;;;;;;5092966;28;20012;-60
2022/07/07 02:18:42;;;;;;;4.90;4.70;;;;;;;;;;5093124;28;20012;-61
2022/07/07 02:21:07;;;;;;;4.82;4.63;;;;;;;;;;5093215;28;20043;-59
2022/07/07 02:23:33;;;;;;;5.07;4.88;;;;;;;;;;5092737;28;20028;-62
2022/07/07 02:25:59;;;;;;;4.90;4.70;;;;;;;;;;5093140;28;20043;-60
2022/07/07 02:28:25;;;;;;;4.90;4.70;;;;;;;;;;5092922;28;20486;-60
2022/07/07 02:30:50;;;;;;;5.00;4.80;;;;;;;;;;5090762;28;20016;-61
2022/07/07 02:33:16;;;;;;;4.97;4.78;;;;;;;;;;5092656;28;20391;-60
2022/07/07 02:35:41;;;;;;;4.95;4.75;;;;;;;;;;5092397;28;20027;-61
2022/07/07 02:38:06;;;;;;;5.00;4.80;;;;;;;;;;5092800;28;20020;-61
2022/07/07 02:40:32;;;;;;;5.00;4.80;;;;;;;;;;5095863;28;20089;-61
2022/07/07 02:42:57;;;;;;;4.90;4.70;;;;;;;;;;5092518;28;20095;-61
2022/07/07 02:45:23;;;;;;;5.05;4.85;;;;;;;;;;5092450;28;20024;-60
2022/07/07 02:47:48;;;;;;;4.82;4.63;;;;;;;;;;5091459;28;20027;-61
2022/07/07 02:50:14;;;;;;;5.07;4.88;;;;;;;;;;5082750;28;20056;-60
2022/07/07 02:52:39;;;;;;;5.07;4.88;;;;;;;;;;5098373;28;20056;-59
2022/07/07 02:55:05;;;;;;;5.00;4.80;;;;;;;;;;5092214;28;20128;-60
2022/07/07 02:57:31;;;;;;;4.82;4.63;;;;;;;;;;5092863;28;20020;-60
2022/07/07 02:59:56;;;;;;;5.00;4.80;;;;;;;;;;5092418;28;20103;-60
2022/07/07 03:02:21;;;;;;;5.15;4.95;;;;;;;;;;5079077;28;20021;-60
2022/07/07 03:04:47;;;;;;;5.20;5.00;;;;;;;;;;5077972;28;20035;-61
2022/07/07 03:07:12;;;;;;;4.90;4.70;;;;;;;;;;5092025;28;20043;-59
2022/07/07 03:09:37;;;;;;;5.00;4.80;;;;;;;;;;5092144;28;20032;-60
2022/07/07 03:12:04;;;;;;;5.30;5.10;;;;;;;;;;5091944;28;20012;-60
2022/07/07 03:14:29;;;;;;;5.07;4.88;;;;;;;;;;5091464;28;20077;-61
2022/07/07 03:16:55;;;;;;;4.95;4.75;;;;;;;;;;5091900;28;20024;-61
2022/07/07 03:19:20;;;;;;;5.00;4.80;;;;;;;;;;5091288;28;20107;-61
2022/07/07 03:21:45;;;;;;;5.07;4.88;;;;;;;;;;5086313;28;20009;-60
2022/07/07 03:24:11;;;;;;;5.20;5.00;;;;;;;;;;5078428;28;20120;-61
2022/07/07 03:26:36;;;;;;;5.05;4.85;;;;;;;;;;5091765;28;20475;-60
2022/07/07 03:29:01;;;;;;;4.90;4.70;;;;;;;;;;5087775;28;20016;-60
2022/07/07 03:31:27;;;;;;;4.90;4.70;;;;;;;;;;5092262;28;20103;-61
2022/07/07 03:33:52;;;;;;;5.00;4.80;;;;;;;;;;5090704;28;20016;-61
2022/07/07 03:36:17;;;;;;;5.10;4.90;;;;;;;;;;5091559;28;20016;-62
2022/07/07 03:38:43;;;;;;;4.90;4.70;;;;;;;;;;5090714;28;20081;-60
2022/07/07 03:41:08;;;;;;;5.10;4.90;;;;;;;;;;5091641;28;20039;-60
2022/07/07 03:43:34;;;;;;;4.88;4.68;;;;;;;;;;5091491;28;20020;-61
2022/07/07 03:46:00;;;;;;;5.00;4.80;;;;;;;;;;5091651;28;20056;-61
2022/07/07 03:48:25;;;;;;;5.13;4.93;;;;;;;;;;5099577;28;20531;-59
2022/07/07 03:50:50;;;;;;;5.20;5.00;;;;;;;;;;5089794;28;20032;-60
2022/07/07 03:53:15;;;;;;;5.00;4.80;;;;;;;;;;5090883;28;20125;-61
2022/07/07 03:55:41;;;;;;;5.03;4.82;;;;;;;;;;5082870;28;20103;-61
2022/07/07 03:58:06;;;;;;;5.10;4.90;;;;;;;;;;5087146;28;20041;-62
2022/07/07 04:00:31;;;;;;;5.00;4.80;;;;;;;;;;5089797;28;20063;-60
2022/07/07 04:02:57;;;;;;;5.03;4.82;;;;;;;;;;5081638;28;20024;-62
2022/07/07 04:05:22;;;;;;;4.95;4.75;;;;;;;;;;5091289;28;20065;-61
2022/07/07 04:07:47;;;;;;;5.20;5.00;;;;;;;;;;5083851;28;20027;-61
2022/07/07 04:10:13;;;;;;;4.93;4.72;;;;;;;;;;5091470;28;20024;-61
2022/07/07 04:12:38;;;;;;;5.00;4.80;;;;;;;;;;5084667;28;20379;-61
2022/07/07 04:15:04;;;;;;;5.00;4.80;;;;;;;;;;5091391;28;20020;-60
2022/07/07 04:17:29;;;;;;;4.90;4.70;;;;;;;;;;5085470;28;20480;-61
2022/07/07 04:19:54;;;;;;;5.00;4.80;;;;;;;;;;5083012;28;20028;-62
2022/07/07 04:22:20;;;;;;;4.97;4.78;;;;;;;;;;5090674;28;20035;-61
2022/07/07 04:24:45;;;;;;;4.90;4.70;;;;;;;;;;5091204;28;20089;-61
2022/07/07 04:27:10;;;;;;;4.85;4.65;;;;;;;;;;5087718;28;20092;-62
2022/07/07 04:29:36;;;;;;;5.00;4.80;;;;;;;;;;5081965;28;20024;-62
2022/07/07 04:32:01;;;;;;;4.90;4.70;;;;;;;;;;5088257;28;20029;-60
2022/07/07 04:34:26;;;;;;;4.80;4.60;;;;;;;;;;5089089;28;20035;-62
2022/07/07 04:36:52;;;;;;;4.88;4.68;;;;;;;;;;5079363;28;20483;-61
2022/07/07 04:39:17;;;;;;;4.90;4.70;;;;;;;;;;5103702;28;20065;-59
2022/07/07 04:41:42;;;;;;;4.97;4.78;;;;;;;;;;5091832;28;20032;-62
2022/07/07 04:44:08;;;;;;;4.97;4.78;;;;;;;;;;5094139;28;20143;-60
2022/07/07 04:46:34;;;;;;;5.00;4.80;;;;;;;;;;5088497;28;20039;-61
2022/07/07 04:49:00;;;;;;;4.90;4.70;;;;;;;;;;5095280;28;20039;-61
2022/07/07 04:51:25;;;;;;;5.00;4.80;;;;;;;;;;5088250;28;20074;-60
2022/07/07 04:53:51;;;;;;;5.00;4.80;;;;;;;;;;5088988;28;20032;-60
2022/07/07 04:56:16;;;;;;;4.93;4.72;;;;;;;;;;5088902;28;20032;-59
2022/07/07 04:58:42;;;;;;;4.88;4.68;;;;;;;;;;5087114;28;20829;-59
2022/07/07 05:01:07;;;;;;;5.15;4.95;;;;;;;;;;5089028;28;20102;-60
2022/07/07 05:03:33;;;;;;;5.07;4.88;;;;;;;;;;5086883;28;20790;-62
2022/07/07 05:05:58;;;;;;;4.97;4.78;;;;;;;;;;5098361;28;20028;-59
2022/07/07 05:08:24;;;;;;;5.20;5.00;;;;;;;;;;5098101;28;20059;-61
2022/07/07 05:10:49;;;;;;;5.00;4.80;;;;;;;;;;5095521;28;20035;-61
2022/07/07 05:13:14;;;;;;;4.88;4.68;;;;;;;;;;5081155;28;20024;-61
2022/07/07 05:15:39;;;;;;;4.90;4.70;;;;;;;;;;5100863;28;20067;-61
2022/07/07 05:18:05;;;;;;;4.90;4.70;;;;;;;;;;5090247;28;20024;-60
2022/07/07 05:20:30;;;;;;;4.80;4.60;;;;;;;;;;5085180;28;20463;-61
2022/07/07 05:22:55;;;;;;;4.93;4.72;;;;;;;;;;5087837;28;20086;-61
2022/07/07 05:25:21;;;;;;;5.00;4.80;;;;;;;;;;5093155;28;20391;-61
2022/07/07 05:27:48;;;;;;;5.00;4.80;;;;;;;;;;5088836;28;20074;-60
2022/07/07 05:30:13;;;;;;;4.93;4.72;;;;;;;;;;5094414;28;20379;-60
2022/07/07 05:32:39;;;;;;;4.97;4.78;;;;;;;;;;5093575;28;20085;-60
2022/07/07 05:35:04;;;;;;;5.13;4.93;;;;;;;;;;5090754;28;20020;-61
2022/07/07 05:37:30;;;;;;;5.15;4.95;;;;;;;;;;5090003;28;20027;-63
2022/07/07 05:39:56;;;;;;;5.03;4.82;;;;;;;;;;5093439;28;20039;-60
2022/07/07 05:42:21;;;;;;;4.82;4.63;;;;;;;;;;5092775;28;20139;-60
2022/07/07 05:44:46;;;;;;;4.90;4.70;;;;;;;;;;5088728;28;20094;-61
2022/07/07 05:47:12;;;;;;;4.90;4.70;;;;;;;;;;5082029;28;20024;-60
2022/07/07 05:49:37;;;;;;;5.10;4.90;;;;;;;;;;5086009;28;20108;-60
2022/07/07 05:52:02;;;;;;;4.90;4.70;;;;;;;;;;5091021;28;20468;-60
2022/07/07 05:54:28;;;;;;;4.95;4.75;;;;;;;;;;5087189;28;20012;-60
2022/07/07 05:56:53;;;;;;;5.10;4.90;;;;;;;;;;5089197;28;20046;-61
2022/07/07 05:59:19;;;;;;;5.10;4.90;;;;;;;;;;5090735;28;20024;-60
2022/07/07 06:01:44;;;;;;;5.00;4.80;;;;;;;;;;5082170;28;20032;-61
2022/07/07 06:04:10;;;;;;;5.10;4.90;;;;;;;;;;5088585;28;20494;-60
2022/07/07 06:06:35;;;;;;;5.00;4.80;;;;;;;;;;5084239;28;20511;-60
2022/07/07 06:09:00;;;;;;;4.90;4.70;;;;;;;;;;5088759;28;20031;-60
2022/07/07 06:11:26;;;;;;;4.93;4.72;;;;;;;;;;5088813;28;20032;-60
2022/07/07 06:13:51;;;;;;;5.28;5.07;;;;;;;;;;5092741;28;20096;-59
2022/07/07 06:16:16;;;;;;;4.88;4.68;;;;;;;;;;5092574;28;20027;-59
2022/07/07 06:18:42;;;;;;;5.10;4.90;;;;;;;;;;5093155;28;20020;-61
2022/07/07 06:21:07;;;;;;;5.10;4.90;;;;;;;;;;5093164;28;20020;-61
2022/07/07 06:23:32;;;;;;;5.00;4.80;;;;;;;;;;5093117;28;20449;-60
2022/07/07 06:26:02;;;;;;;5.00;4.80;;;;;;;;;;5092919;28;20016;-59
2022/07/07 06:28:27;;;;;;;4.95;4.75;;;;;;;;;;5091923;28;20028;-60
2022/07/07 06:30:53;;;;;;;5.13;4.93;;;;;;;;;;5092847;28;20024;-60
2022/07/07 06:33:18;;;;;;;5.03;4.82;;;;;;;;;;5091204;28;20521;-60
2022/07/07 06:35:43;;;;;;;5.00;4.80;;;;;;;;;;5092703;28;20024;-61
2022/07/07 06:38:09;;;;;;;5.10;4.90;;;;;;;;;;5092837;28;20491;-60
2022/07/07 06:40:34;;;;;;;5.03;4.82;;;;;;;;;;5092549;28;20031;-60
2022/07/07 06:42:59;;;;;;;5.13;4.93;;;;;;;;;;5092198;28;20020;-61
2022/07/07 06:45:25;;;;;;;5.07;4.88;;;;;;;;;;5081848;28;20073;-61
2022/07/07 06:47:50;;;;;;;5.28;5.07;;;;;;;;;;5083875;28;20036;-61
2022/07/07 06:50:15;;;;;;;5.50;5.30;;;;;;;;;;5089699;28;20132;-59
2022/07/07 06:52:41;;;;;;;5.10;4.90;;;;;;;;;;5088277;28;20675;-59
2022/07/07 06:55:06;;;;;;;5.30;5.10;;;;;;;;;;5082770;28;20020;-61
2022/07/07 06:57:32;;;;;;;5.20;5.00;;;;;;;;;;5092072;28;20480;-61
2022/07/07 06:59:57;;;;;;;5.20;5.00;;;;;;;;;;5077549;28;20023;-63
2022/07/07 07:02:22;;;;;;;5.20;5.00;;;;;;;;;;5080929;28;20403;-64
2022/07/07 07:04:50;;;;;;;5.30;5.10;;;;;;;;;;5083898;28;20062;-64
2022/07/07 07:07:15;;;;;;;5.30;5.10;;;;;;;;;;5079459;28;20326;-64
2022/07/07 07:09:41;;;;;;;5.28;5.07;;;;;;;;;;5075274;28;20491;-64
2022/07/07 07:12:06;;;;;;;5.30;5.10;;;;;;;;;;5089927;28;20479;-64
2022/07/07 07:14:32;;;;;;;5.35;5.15;;;;;;;;;;5090682;28;20028;-63
2022/07/07 07:16:57;;;;;;;5.22;5.03;;;;;;;;;;5085888;28;20387;-63
2022/07/07 07:19:22;;;;;;;5.40;5.20;;;;;;;;;;5085620;28;20075;-63
2022/07/07 07:21:48;;;;;;;5.40;5.20;;;;;;;;;;5079253;28;20058;-63
2022/07/07 07:24:13;;;;;;;5.28;5.07;;;;;;;;;;5083991;28;20396;-63
2022/07/07 07:26:39;;;;;;;5.20;5.00;;;;;;;;;;5086266;28;20482;-63
2022/07/07 07:29:04;;;;;;;5.30;5.10;;;;;;;;;;5081400;28;20027;-64
2022/07/07 07:31:30;;;;;;;5.22;5.03;;;;;;;;;;5082519;28;20082;-60
2022/07/07 07:33:55;;;;;;;5.50;5.30;;;;;;;;;;5076918;28;20046;-63
2022/07/07 07:36:20;;;;;;;5.38;5.18;;;;;;;;;;5077328;28;20029;-62
2022/07/07 07:38:48;;;;;;;5.25;5.05;;;;;;;;;;5089683;28;20395;-62
2022/07/07 07:41:13;;;;;;;5.20;5.00;;;;;;;;;;5083900;28;20085;-64
2022/07/07 07:43:38;;;;;;;5.13;4.93;;;;;;;;;;5086308;28;20467;-62
2022/07/07 07:46:04;;;;;;;5.20;5.00;;;;;;;;;;5081109;28;20368;-61
2022/07/07 07:48:29;;;;;;;5.28;5.07;;;;;;;;;;5077944;28;20593;-60
2022/07/07 07:50:55;;;;;;;5.30;5.10;;;;;;;;;;5084363;28;20027;-61
2022/07/07 07:53:21;;;;;;;5.28;5.07;;;;;;;;;;5083053;28;20028;-62
2022/07/07 07:55:47;;;;;;;5.15;4.95;;;;;;;;;;5089515;28;20030;-61
2022/07/07 07:58:12;;;;;;;5.30;5.10;;;;;;;;;;5089910;28;20095;-62
2022/07/07 08:00:37;;;;;;;5.30;5.10;;;;;;;;;;5091163;28;20039;-61
2022/07/07 08:03:03;;;;;;;5.40;5.20;;;;;;;;;;5086763;28;20023;-62
2022/07/07 08:05:29;;;;;;;5.40;5.20;;;;;;;;;;5090565;28;20028;-62
2022/07/07 08:07:55;;;;;;;5.20;5.00;;;;;;;;;;5094594;28;20024;-61
2022/07/07 08:10:20;;;;;;;5.35;5.15;;;;;;;;;;5094405;28;20020;-62
2022/07/07 08:12:47;;;;;;;5.35;5.15;;;;;;;;;;5095339;28;20032;-61
2022/07/07 08:15:14;;;;;;;5.47;5.28;;;;;;;;;;5093135;28;20020;-61
2022/07/07 08:17:39;;;;;;;5.20;5.00;;;;;;;;;;5093246;28;20502;-62
2022/07/07 08:20:05;;;;;;;5.32;5.13;;;;;;;;;;5088046;28;20024;-61
2022/07/07 08:22:30;;;;;;;5.30;5.10;;;;;;;;;;5095079;28;20031;-61
2022/07/07 08:24:56;;;;;;;5.22;5.03;;;;;;;;;;5095415;28;20019;-62
2022/07/07 08:27:22;;;;;;;5.30;5.10;;;;;;;;;;5094397;28;20097;-61
2022/07/07 08:29:48;;;;;;;5.35;5.15;;;;;;;;;;5104306;28;20479;-63
2022/07/07 08:32:14;;;;;;;5.30;5.10;;;;;;;;;;5093876;28;20028;-61
2022/07/07 08:34:39;;;;;;;5.30;5.10;;;;;;;;;;5092274;28;20069;-62
2022/07/07 08:37:05;;;;;;;5.07;4.88;;;;;;;;;;5094911;28;20024;-62
2022/07/07 08:39:30;;;;;;;5.20;5.00;;;;;;;;;;5095110;28;20069;-62
2022/07/07 08:41:56;;;;;;;5.20;5.00;;;;;;;;;;5095414;28;20444;-62
2022/07/07 08:44:21;;;;;;;5.30;5.10;;;;;;;;;;5093635;28;20451;-62
2022/07/07 08:46:47;;;;;;;5.10;4.90;;;;;;;;;;5094858;28;20016;-63
2022/07/07 08:49:12;;;;;;;5.28;5.07;;;;;;;;;;5094422;28;20044;-61
2022/07/07 08:51:41;;;;;;;5.30;5.10;;;;;;;;;;5094348;28;20390;-61
2022/07/07 08:54:08;;;;;;;5.50;5.30;;;;;;;;;;5094328;28;20031;-62
2022/07/07 08:56:35;;;;;;;5.20;5.00;;;;;;;;;;5092947;28;20020;-63
2022/07/07 08:59:00;;;;;;;5.28;5.07;;;;;;;;;;5086700;28;20039;-61
2022/07/07 09:01:25;;;;;;;5.25;5.05;;;;;;;;;;5093362;28;20426;-60
2022/07/07 09:03:51;;;;;;;5.30;5.10;;;;;;;;;;5094225;28;20027;-62
2022/07/07 09:06:16;;;;;;;5.30;5.10;;;;;;;;;;5094546;28;20043;-61
2022/07/07 09:08:41;;;;;;;5.30;5.10;;;;;;;;;;5094185;28;20471;-60
2022/07/07 09:11:08;;;;;;;5.30;5.10;;;;;;;;;;5094148;28;20149;-62
2022/07/07 09:13:34;;;;;;;5.35;5.15;;;;;;;;;;5094480;28;20080;-61
2022/07/07 09:16:04;;;;;;;5.32;5.13;;;;;;;;;;5090467;28;20418;-61
2022/07/07 09:18:31;;;;;;;5.30;5.10;;;;;;;;;;5086331;28;20528;-61
2022/07/07 09:20:57;;;;;;;5.40;5.20;;;;;;;;;;5094069;28;20032;-63
2022/07/07 09:23:23;;;;;;;5.25;5.05;;;;;;;;;;5094025;28;20035;-62
2022/07/07 09:25:49;;;;;;;5.30;5.10;;;;;;;;;;5100896;28;20027;-62
2022/07/07 09:28:14;;;;;;;5.13;4.93;;;;;;;;;;5094255;28;20020;-61
2022/07/07 09:30:42;;;;;;;5.38;5.18;;;;;;;;;;5093958;28;20069;-61
2022/07/07 09:33:09;;;;;;;5.30;5.10;;;;;;;;;;5094099;28;20016;-62
2022/07/07 09:38:25;;;;;;;5.30;5.10;;;;;;;;;;5094470;28;20437;-61
2022/07/07 09:40:51;;;;;;;5.15;4.95;;;;;;;;;;5093868;28;20486;-62
2022/07/07 09:43:16;;;;;;;5.28;5.07;;;;;;;;;;5093812;28;20024;-61
2022/07/07 09:45:41;;;;;;;5.30;5.10;;;;;;;;;;5093979;28;20085;-62
2022/07/07 09:48:07;;;;;;;5.28;5.07;;;;;;;;;;5093389;28;20040;-62
2022/07/07 09:50:33;;;;;;;5.35;5.15;;;;;;;;;;5093094;28;20426;-62
2022/07/07 09:53:05;;;;;;;5.30;5.10;;;;;;;;;;5092535;28;20024;-62
2022/07/07 09:55:30;;;;;;;5.20;5.00;;;;;;;;;;5090718;28;20020;-61
2022/07/07 09:57:56;;;;;;;5.25;5.05;;;;;;;;;;5093208;28;20030;-63
2022/07/07 10:00:21;;;;;;;5.25;5.05;;;;;;;;;;5094437;28;20027;-62
2022/07/07 10:02:47;;;;;;;5.30;5.10;;;;;;;;;;5106029;28;20024;-61
2022/07/07 10:05:15;;;;;;;5.20;5.00;;;;;;;;;;5092902;28;20020;-61
2022/07/07 10:07:42;;;;;;;5.28;5.07;;;;;;;;;;5091781;28;20024;-62
2022/07/07 10:10:10;;;;;;;5.35;5.15;;;;;;;;;;5093231;28;20023;-61
2022/07/07 10:12:43;;;;;;;5.20;5.00;;;;;;;;;;5092986;28;20392;-61
2022/07/07 10:15:11;;;;;;;5.38;5.18;;;;;;;;;;5082783;28;20016;-62
2022/07/07 10:17:37;;;;;;;5.20;5.00;;;;;;;;;;5091755;28;20027;-60
2022/07/07 10:20:02;;;;;;;5.30;5.10;;;;;;;;;;5092729;28;20028;-63
2022/07/07 10:22:28;;;;;;;5.30;5.10;;;;;;;;;;5100978;28;20103;-62
2022/07/07 10:24:54;;;;;;;5.40;5.20;;;;;;;;;;5091811;28;20025;-62
2022/07/07 10:27:21;;;;;;;5.07;4.88;;;;;;;;;;5085456;28;20028;-61
2022/07/07 10:29:48;;;;;;;5.38;5.18;;;;;;;;;;5091945;28;20027;-62
2022/07/07 10:32:23;;;;;;;5.30;5.10;;;;;;;;;;5092509;28;20019;-61
2022/07/07 10:34:53;;;;;;;5.30;5.10;;;;;;;;;;5092410;28;20016;-60
2022/07/07 10:37:18;;;;;;;5.30;5.10;;;;;;;;;;5092247;28;20016;-62
2022/07/07 10:39:45;;;;;;;5.30;5.10;;;;;;;;;;5092357;28;20036;-62
2022/07/07 10:42:17;;;;;;;5.20;5.00;;;;;;;;;;5091574;28;20024;-61
2022/07/07 10:44:47;;;;;;;5.20;5.00;;;;;;;;;;5092273;28;20024;-60
2022/07/07 10:47:12;;;;;;;5.20;5.00;;;;;;;;;;5092684;28;20099;-62
2022/07/07 10:49:39;;;;;;;5.20;5.00;;;;;;;;;;5092310;28;20474;-62
2022/07/07 10:52:09;;;;;;;5.20;5.00;;;;;;;;;;5078517;28;20526;-62
2022/07/07 10:54:36;;;;;;;5.10;4.90;;;;;;;;;;5092693;28;20028;-62
2022/07/07 10:57:01;;;;;;;5.13;4.93;;;;;;;;;;5091946;28;20019;-65
2022/07/07 10:59:27;;;;;;;5.10;4.90;;;;;;;;;;5090747;28;20020;-62
2022/07/07 11:02:01;;;;;;;5.05;4.85;;;;;;;;;;5092154;28;20298;-63
2022/07/07 11:04:41;;;;;;;5.18;4.97;;;;;;;;;;5092392;28;20107;-62
2022/07/07 11:07:10;;;;;;;5.10;4.90;;;;;;;;;;5091618;28;20027;-61
2022/07/07 11:09:54;;;;;;;5.30;5.10;;;;;;;;;;5091950;28;20439;-62
2022/07/07 11:12:38;;;;;;;5.22;5.03;;;;;;;;;;5091817;28;20489;-61
2022/07/07 11:15:25;;;;;;;5.20;5.00;;;;;;;;;;5078054;28;20023;-62
2022/07/07 11:17:50;;;;;;;4.85;4.65;;;;;;;;;;5094731;28;20516;-61
2022/07/07 11:20:17;;;;;;;5.10;4.90;;;;;;;;;;5100309;28;20039;-62
2022/07/07 11:22:46;;;;;;;5.20;5.00;;;;;;;;;;5091793;28;20483;-61
2022/07/07 11:25:12;;;;;;;5.15;4.95;;;;;;;;;;5091875;28;20028;-62
2022/07/07 11:27:37;;;;;;;5.20;5.00;;;;;;;;;;5091764;28;20157;-60
2022/07/07 11:30:03;;;;;;;5.30;5.10;;;;;;;;;;5091791;28;20058;-62
2022/07/07 11:32:36;;;;;;;5.15;4.95;;;;;;;;;;5091851;28;20032;-62
2022/07/07 11:35:05;;;;;;;5.30;5.10;;;;;;;;;;5079182;28;20043;-61
2022/07/07 11:37:31;;;;;;;5.20;5.00;;;;;;;;;;5091687;28;20076;-62
2022/07/07 11:39:56;;;;;;;5.15;4.95;;;;;;;;;;5091395;28;20032;-63
2022/07/07 11:42:22;;;;;;;5.20;5.00;;;;;;;;;;5094245;28;20039;-61
2022/07/07 11:44:47;;;;;;;5.20;5.00;;;;;;;;;;5096005;28;20023;-62
2022/07/07 11:47:13;;;;;;;5.07;4.88;;;;;;;;;;5093516;28;20094;-62
2022/07/07 11:49:39;;;;;;;5.18;4.97;;;;;;;;;;5094662;28;20152;-63
2022/07/07 11:52:05;;;;;;;5.13;4.93;;;;;;;;;;5095959;28;20103;-62
2022/07/07 11:54:30;;;;;;;5.20;5.00;;;;;;;;;;5095562;28;20543;-62
2022/07/07 11:56:55;;;;;;;5.20;5.00;;;;;;;;;;5095257;28;20019;-62
2022/07/07 11:59:21;;;;;;;5.18;4.97;;;;;;;;;;5095752;28;20024;-62
2022/07/07 12:01:50;;;;;;;5.15;4.95;;;;;;;;;;5095660;28;20028;-63
2022/07/07 12:04:16;;;;;;;5.15;4.95;;;;;;;;;;5095299;28;20491;-61
2022/07/07 12:06:42;;;;;;;5.18;4.97;;;;;;;;;;5094044;28;20073;-60
2022/07/07 12:09:08;;;;;;;5.10;4.90;;;;;;;;;;5095586;28;20029;-63
2022/07/07 12:11:42;;;;;;;5.13;4.93;;;;;;;;;;5095381;28;20028;-63
2022/07/07 12:14:09;;;;;;;5.10;4.90;;;;;;;;;;5097679;28;20019;-61
2022/07/07 12:16:41;;;;;;;5.18;4.97;;;;;;;;;;5095169;28;20077;-61
2022/07/07 12:19:06;;;;;;;5.10;4.90;;;;;;;;;;5095224;28;20044;-61
2022/07/07 12:21:31;;;;;;;5.10;4.90;;;;;;;;;;5095573;28;20099;-61
2022/07/07 12:23:57;;;;;;;5.00;4.80;;;;;;;;;;5094296;28;20970;-61
2022/07/07 12:26:26;;;;;;;5.15;4.95;;;;;;;;;;5095222;28;20511;-61
2022/07/07 12:28:57;;;;;;;5.28;5.07;;;;;;;;;;5095290;28;20024;-61
2022/07/07 12:31:22;;;;;;;5.30;5.10;;;;;;;;;;5094759;28;20020;-61
2022/07/07 12:33:47;;;;;;;5.22;5.03;;;;;;;;;;5094840;28;20020;-62
2022/07/07 12:36:13;;;;;;;5.22;5.03;;;;;;;;;;5095050;28;20111;-62
2022/07/07 12:38:48;;;;;;;5.10;4.90;;;;;;;;;;5095020;28;20723;-62
2022/07/07 12:41:24;;;;;;;5.35;5.15;;;;;;;;;;5094110;28;20614;-63
2022/07/07 12:43:50;;;;;;;5.05;4.85;;;;;;;;;;5081020;28;20108;-61
2022/07/07 12:46:16;;;;;;;5.10;4.90;;;;;;;;;;5094910;28;20037;-62
2022/07/07 12:48:49;;;;;;;5.10;4.90;;;;;;;;;;5094525;28;20087;-63
2022/07/07 12:51:14;;;;;;;5.15;4.95;;;;;;;;;;5094318;28;20491;-61
2022/07/07 12:53:40;;;;;;;5.13;4.93;;;;;;;;;;5094083;28;20042;-63
2022/07/07 12:56:09;;;;;;;5.07;4.88;;;;;;;;;;5094816;28;20027;-63
2022/07/07 12:58:48;;;;;;;5.20;5.00;;;;;;;;;;5093511;28;20544;-60
2022/07/07 13:01:16;;;;;;;5.30;5.10;;;;;;;;;;5094588;28;20039;-62
2022/07/07 13:03:42;;;;;;;5.20;5.00;;;;;;;;;;5094675;28;20441;-62
2022/07/07 13:06:07;;;;;;;5.13;4.93;;;;;;;;;;5094157;28;20111;-61
2022/07/07 13:08:33;;;;;;;5.32;5.13;;;;;;;;;;5094116;28;20031;-63
2022/07/07 13:10:58;;;;;;;5.07;4.88;;;;;;;;;;5097525;28;20016;-61
2022/07/07 13:13:23;;;;;;;5.15;4.95;;;;;;;;;;5094122;28;20082;-63
2022/07/07 13:15:49;;;;;;;5.10;4.90;;;;;;;;;;5083194;28;20115;-62
2022/07/07 13:18:14;;;;;;;5.30;5.10;;;;;;;;;;5092068;28;20024;-61
2022/07/07 13:20:39;;;;;;;5.22;5.03;;;;;;;;;;5092497;28;20020;-62
2022/07/07 13:23:05;;;;;;;5.30;5.10;;;;;;;;;;5092983;28;20020;-62
2022/07/07 13:25:30;;;;;;;5.10;4.90;;;;;;;;;;5094080;28;20032;-62
2022/07/07 13:27:55;;;;;;;5.32;5.13;;;;;;;;;;5094061;28;20020;-62
2022/07/07 13:30:22;;;;;;;5.40;5.20;;;;;;;;;;5093807;28;20459;-62
2022/07/07 13:32:49;;;;;;;5.40;5.20;;;;;;;;;;5092616;28;20097;-61
2022/07/07 13:35:14;;;;;;;5.35;5.15;;;;;;;;;;5093680;28;20031;-61
2022/07/07 13:37:39;;;;;;;5.40;5.20;;;;;;;;;;5093530;28;20024;-62
2022/07/07 13:40:05;;;;;;;5.18;4.97;;;;;;;;;;5083368;28;20051;-63
2022/07/07 13:42:31;;;;;;;5.32;5.13;;;;;;;;;;5092269;28;20376;-62
2022/07/07 13:44:56;;;;;;;5.30;5.10;;;;;;;;;;5093644;28;20517;-61
2022/07/07 13:47:21;;;;;;;5.38;5.18;;;;;;;;;;5093221;28;20020;-62
2022/07/07 13:49:47;;;;;;;5.43;5.22;;;;;;;;;;5092595;28;20047;-62
2022/07/07 13:52:12;;;;;;;5.40;5.20;;;;;;;;;;5093976;28;20099;-63
2022/07/07 13:54:38;;;;;;;5.25;5.05;;;;;;;;;;5093748;28;20375;-62
2022/07/07 13:57:06;;;;;;;5.40;5.20;;;;;;;;;;5093287;28;20020;-63
2022/07/07 13:59:32;;;;;;;5.43;5.22;;;;;;;;;;5093571;28;20016;-63
2022/07/07 14:01:57;;;;;;;5.40;5.20;;;;;;;;;;5093326;28;20432;-62
2022/07/07 14:04:22;;;;;;;5.35;5.15;;;;;;;;;;5092425;28;20054;-62
2022/07/07 14:06:48;;;;;;;5.50;5.30;;;;;;;;;;5095253;28;20028;-62
2022/07/07 14:09:14;;;;;;;5.40;5.20;;;;;;;;;;5096299;28;20028;-62
2022/07/07 14:11:40;;;;;;;5.47;5.28;;;;;;;;;;5093125;28;20540;-63
2022/07/07 14:14:05;;;;;;;5.43;5.22;;;;;;;;;;5093044;28;20488;-62
2022/07/07 14:16:31;;;;;;;5.35;5.15;;;;;;;;;;5091887;28;20019;-61
2022/07/07 14:18:56;;;;;;;5.50;5.30;;;;;;;;;;5092939;28;20440;-62
2022/07/07 14:21:23;;;;;;;5.35;5.15;;;;;;;;;;5092829;28;20024;-62
2022/07/07 14:23:48;;;;;;;5.50;5.30;;;;;;;;;;5092230;28;20046;-62
2022/07/07 14:26:13;;;;;;;5.43;5.22;;;;;;;;;;5092863;28;20024;-62
2022/07/07 14:28:39;;;;;;;5.30;5.10;;;;;;;;;;5092913;28;20471;-62
2022/07/07 14:31:04;;;;;;;5.45;5.25;;;;;;;;;;5092955;28;20508;-62
2022/07/07 14:33:30;;;;;;;5.40;5.20;;;;;;;;;;5092876;28;20502;-61
2022/07/07 14:35:55;;;;;;;5.35;5.15;;;;;;;;;;5085734;28;20023;-60
2022/07/07 14:38:21;;;;;;;5.40;5.20;;;;;;;;;;5092461;28;20018;-63
2022/07/07 14:40:46;;;;;;;5.47;5.28;;;;;;;;;;5091490;28;20024;-63